Time;durP1;ratioP1;P1;durP2;ratioP2;P2;SDS_P1;SDS_P2;PMS_P1;PMS_P2;Temp;Humidity;BMP_temperature;BMP_pressure;BME280_temperature;BME280_humidity;BME280_pressure;Samples;Min_cycle;Max_cycle;Signal;HPM_P1;HPM_P2
2022/10/28 00:00:25;;;;;;;2.03;1.02;;;14.00;99.90;;;;;;4823890;29;20045;-87
2022/10/28 00:02:50;;;;;;;4.47;1.40;;;14.00;99.90;;;;;;4836650;29;20053;-85
2022/10/28 00:05:16;;;;;;;2.25;1.33;;;13.90;99.90;;;;;;4819896;29;20046;-85
2022/10/28 00:07:42;;;;;;;1.95;1.02;;;14.30;99.90;;;;;;4820147;29;20054;-85
2022/10/28 00:10:08;;;;;;;3.35;1.00;;;14.80;99.90;;;;;;4843638;29;20125;-84
2022/10/28 00:12:35;;;;;;;3.33;1.30;;;13.90;99.90;;;;;;4836165;29;20080;-93
2022/10/28 00:15:01;;;;;;;2.85;1.40;;;13.90;99.90;;;;;;4819373;29;20491;-85
2022/10/28 00:17:26;;;;;;;4.15;1.15;;;13.80;99.90;;;;;;4836603;29;20042;-85
2022/10/28 00:19:52;;;;;;;2.70;1.38;;;13.80;99.90;;;;;;4820287;29;20062;-84
2022/10/28 00:22:18;;;;;;;4.40;1.10;;;14.00;99.90;;;;;;4820424;29;20059;-84
2022/10/28 00:24:43;;;;;;;1.58;0.80;;;13.80;99.90;;;;;;4835910;29;20077;-84
2022/10/28 00:27:09;;;;;;;2.63;1.17;;;13.80;99.90;;;;;;4819475;29;20042;-85
2022/10/28 00:29:35;;;;;;;2.88;1.23;;;14.80;99.90;;;;;;4836227;29;20034;-86
2022/10/28 00:32:00;;;;;;;2.47;1.00;;;13.90;99.90;;;;;;4836418;29;20125;-88
2022/10/28 00:34:26;;;;;;;2.00;1.20;;;13.80;99.90;;;;;;4843091;29;20045;-89
2022/10/28 00:36:52;;;;;;;3.05;1.50;;;13.90;99.90;;;;;;4843338;29;20041;-86
2022/10/28 00:39:20;;;;;;;3.58;1.10;;;13.80;99.90;;;;;;4829671;29;20050;-85
2022/10/28 00:41:51;;;;;;;2.60;1.40;;;13.80;99.90;;;;;;4835564;29;20057;-86
2022/10/28 00:44:40;;;;;;;3.63;1.45;;;14.00;99.90;;;;;;4835870;29;20535;-87
2022/10/28 00:47:17;;;;;;;2.30;1.27;;;13.80;99.90;;;;;;4830354;29;20046;-90
2022/10/28 00:49:44;;;;;;;3.13;1.30;;;13.80;99.90;;;;;;4834485;29;20447;-84
2022/10/28 00:52:20;;;;;;;2.50;1.20;;;14.10;99.90;;;;;;4835768;29;20034;-85
2022/10/28 00:54:46;;;;;;;2.35;1.10;;;13.80;99.90;;;;;;4833857;29;20437;-85
2022/10/28 00:57:23;;;;;;;2.83;1.30;;;13.80;99.90;;;;;;4821659;29;20042;-86
2022/10/28 00:59:51;;;;;;;1.98;1.02;;;13.80;99.90;;;;;;4834039;29;20487;-87
2022/10/28 01:02:18;;;;;;;4.07;1.10;;;13.80;99.90;;;;;;4821671;29;20088;-85
2022/10/28 01:04:45;;;;;;;2.00;1.02;;;13.80;99.90;;;;;;4835538;29;20094;-85
2022/10/28 01:07:11;;;;;;;2.17;1.02;;;14.10;99.90;;;;;;4842552;29;20042;-87
2022/10/28 01:09:39;;;;;;;3.70;1.10;;;13.90;99.90;;;;;;4835167;29;20050;-84
2022/10/28 01:12:33;;;;;;;1.38;1.00;;;13.90;99.90;;;;;;4836253;29;20046;-86
2022/10/28 01:15:26;;;;;;;2.13;1.08;;;13.80;99.90;;;;;;4839613;29;20046;-86
2022/10/28 01:18:29;;;;;;;1.63;0.90;;;13.90;99.90;;;;;;4835143;29;20085;-91
2022/10/28 01:21:07;;;;;;;2.97;1.75;;;13.90;99.90;;;;;;4786582;29;20138;-87
2022/10/28 01:23:58;;;;;;;1.55;0.80;;;13.90;99.90;;;;;;4785423;29;20055;-91
2022/10/28 01:26:58;;;;;;;3.10;1.45;;;13.90;99.90;;;;;;4786122;29;20051;-88
2022/10/28 01:29:28;;;;;;;2.28;1.30;;;13.80;99.90;;;;;;4791411;29;20472;-85
2022/10/28 01:32:08;;;;;;;2.45;1.20;;;13.80;99.90;;;;;;4787228;29;20063;-89
2022/10/28 01:34:42;;;;;;;1.65;1.05;;;14.30;99.90;;;;;;4785894;29;20096;-86
2022/10/28 01:37:14;;;;;;;2.20;1.38;;;13.70;99.90;;;;;;4792284;29;20051;-85
2022/10/28 01:39:51;;;;;;;1.95;1.23;;;13.70;99.90;;;;;;4786024;29;20615;-90
2022/10/28 01:42:35;;;;;;;2.50;1.10;;;13.70;99.90;;;;;;4786692;29;20524;-86
2022/10/28 01:45:27;;;;;;;3.17;1.13;;;13.70;99.90;;;;;;4783503;29;20536;-85
2022/10/28 01:48:14;;;;;;;3.83;1.75;;;13.70;99.90;;;;;;4785590;29;20110;-89
2022/10/28 01:50:51;;;;;;;2.80;1.40;;;13.60;99.90;;;;;;4785842;29;20059;-85
2022/10/28 01:53:22;;;;;;;2.97;1.40;;;14.20;99.90;;;;;;4785707;29;20417;-85
2022/10/28 01:55:51;;;;;;;2.80;1.30;;;13.90;99.90;;;;;;4833484;29;20061;-89
2022/10/28 01:58:21;;;;;;;3.25;1.30;;;14.20;99.90;;;;;;4834976;29;20492;-87
2022/10/28 02:00:48;;;;;;;2.60;1.35;;;13.50;99.90;;;;;;4824750;29;20057;-91
2022/10/28 02:03:15;;;;;;;3.45;1.40;;;13.60;99.90;;;;;;4832037;29;20038;-90
2022/10/28 02:05:49;;;;;;;3.20;1.52;;;13.50;99.90;;;;;;4837329;29;20053;-85
2022/10/28 02:08:14;;;;;;;3.13;1.73;;;13.50;99.90;;;;;;4834988;29;20046;-85
2022/10/28 02:10:46;;;;;;;2.13;1.30;;;13.40;99.90;;;;;;4829254;29;20457;-85
2022/10/28 02:13:14;;;;;;;3.10;1.45;;;13.40;99.90;;;;;;4831177;29;20057;-85
2022/10/28 02:15:52;;;;;;;2.92;1.30;;;13.30;99.90;;;;;;4835113;29;20058;-85
2022/10/28 02:18:20;;;;;;;3.53;1.50;;;13.30;99.90;;;;;;4831898;29;20050;-85
2022/10/28 02:21:00;;;;;;;2.28;1.60;;;13.20;99.90;;;;;;4837734;29;20066;-86
2022/10/28 02:23:28;;;;;;;4.38;1.75;;;13.10;99.90;;;;;;4835931;29;20049;-85
2022/10/28 02:26:13;;;;;;;3.42;1.27;;;13.10;99.90;;;;;;4817390;29;20057;-85
2022/10/28 02:29:03;;;;;;;1.95;1.25;;;13.10;99.90;;;;;;4829112;29;20405;-85
2022/10/28 02:31:39;;;;;;;2.72;1.50;;;13.00;99.90;;;;;;4831754;29;20454;-87
2022/10/28 02:34:20;;;;;;;3.20;1.50;;;13.00;99.90;;;;;;4815477;29;20042;-84
2022/10/28 02:36:51;;;;;;;3.20;1.30;;;12.90;99.90;;;;;;4829930;29;20106;-84
2022/10/28 02:39:20;;;;;;;3.45;1.05;;;12.90;99.90;;;;;;4837515;29;20098;-89
2022/10/28 02:42:05;;;;;;;3.42;1.52;;;12.90;99.90;;;;;;4837267;29;20042;-85
2022/10/28 02:44:38;;;;;;;3.20;1.80;;;12.80;99.90;;;;;;4836864;29;20058;-86
2022/10/28 02:47:11;;;;;;;3.45;1.77;;;12.70;99.90;;;;;;4832588;29;20043;-86
2022/10/28 02:49:41;;;;;;;3.55;1.40;;;12.80;99.90;;;;;;4843921;29;20054;-85
2022/10/28 02:52:08;;;;;;;5.10;1.60;;;12.80;99.90;;;;;;4839733;29;20046;-86
2022/10/28 02:54:52;;;;;;;4.05;1.40;;;12.70;99.90;;;;;;4819662;29;20050;-84
2022/10/28 02:57:28;;;;;;;2.35;1.40;;;12.70;99.90;;;;;;4818486;29;20084;-86
2022/10/28 03:00:00;;;;;;;3.40;1.40;;;12.70;99.90;;;;;;4824516;29;20527;-86
2022/10/28 03:02:27;;;;;;;5.60;1.95;;;13.50;99.90;;;;;;4839781;29;20042;-84
2022/10/28 03:04:53;;;;;;;4.07;1.60;;;12.30;99.90;;;;;;4830933;29;20496;-85
2022/10/28 03:07:19;;;;;;;2.60;1.40;;;12.50;99.90;;;;;;4839891;29;20118;-85
2022/10/28 03:09:45;;;;;;;3.30;1.63;;;12.60;99.90;;;;;;4819167;29;20405;-86
2022/10/28 03:12:10;;;;;;;1.85;1.33;;;12.50;99.90;;;;;;4837651;29;20050;-84
2022/10/28 03:14:36;;;;;;;4.22;1.63;;;12.40;99.90;;;;;;4837567;29;20116;-91
2022/10/28 03:17:02;;;;;;;4.15;1.30;;;12.40;99.90;;;;;;4819465;29;20057;-85
2022/10/28 03:19:28;;;;;;;1.98;1.42;;;12.50;99.90;;;;;;4834359;29;20058;-91
2022/10/28 03:21:54;;;;;;;2.75;1.45;;;13.00;99.90;;;;;;4826071;29;20103;-85
2022/10/28 03:24:20;;;;;;;4.10;1.50;;;12.40;99.90;;;;;;4819116;29;20046;-85
2022/10/28 03:26:45;;;;;;;2.90;1.40;;;12.40;99.90;;;;;;4826186;29;20130;-85
2022/10/28 03:29:11;;;;;;;3.03;1.60;;;12.40;99.90;;;;;;4825540;29;20488;-84
2022/10/28 03:31:36;;;;;;;4.82;1.40;;;12.40;99.90;;;;;;4826243;29;20046;-88
2022/10/28 03:34:02;;;;;;;4.20;1.95;;;12.70;99.90;;;;;;4826190;29;20107;-85
2022/10/28 03:36:28;;;;;;;2.92;1.38;;;12.50;99.90;;;;;;4824773;29;20049;-84
2022/10/28 03:38:53;;;;;;;5.07;2.03;;;12.40;99.90;;;;;;4826375;29;20574;-84
2022/10/28 03:41:19;;;;;;;2.83;1.63;;;12.40;99.90;;;;;;4825712;29;20046;-86
2022/10/28 03:43:45;;;;;;;4.93;1.90;;;12.70;99.90;;;;;;4824906;29;20160;-85
2022/10/28 03:46:11;;;;;;;3.60;2.03;;;12.30;99.90;;;;;;4826028;29;20042;-84
2022/10/28 03:48:36;;;;;;;7.03;2.22;;;12.30;99.90;;;;;;4824965;29;20052;-86
2022/10/28 03:51:02;;;;;;;4.03;1.70;;;12.30;99.90;;;;;;4824689;29;20159;-84
2022/10/28 03:53:28;;;;;;;3.55;1.67;;;12.30;99.90;;;;;;4824544;29;20043;-84
2022/10/28 03:55:55;;;;;;;3.15;1.55;;;12.30;99.90;;;;;;4826110;29;20071;-89
2022/10/28 03:58:21;;;;;;;4.05;1.88;;;12.00;99.90;;;;;;4824646;29;20049;-85
2022/10/28 04:00:48;;;;;;;2.90;1.80;;;12.30;99.90;;;;;;4825592;29;20138;-85
2022/10/28 04:03:15;;;;;;;5.03;1.92;;;12.20;99.90;;;;;;4824490;29;20059;-88
2022/10/28 04:05:40;;;;;;;3.92;1.65;;;12.80;99.90;;;;;;4825556;29;20050;-89
2022/10/28 04:08:06;;;;;;;5.05;1.83;;;12.60;99.90;;;;;;4825892;29;20130;-85
2022/10/28 04:10:32;;;;;;;6.20;2.40;;;12.30;99.90;;;;;;4825883;29;20046;-85
2022/10/28 04:13:01;;;;;;;3.42;1.77;;;12.40;99.90;;;;;;4824398;29;20055;-84
2022/10/28 04:15:27;;;;;;;2.78;1.70;;;12.30;99.90;;;;;;4824459;29;20050;-86
2022/10/28 04:17:53;;;;;;;3.22;2.03;;;12.80;99.90;;;;;;4825168;29;20142;-85
2022/10/28 04:20:18;;;;;;;4.88;1.90;;;12.50;99.90;;;;;;4823743;29;20059;-88
2022/10/28 04:22:44;;;;;;;4.38;1.85;;;13.20;99.90;;;;;;4818330;29;20054;-85
2022/10/28 04:25:10;;;;;;;5.35;2.00;;;11.90;99.90;;;;;;4800100;29;20086;-88
2022/10/28 04:27:35;;;;;;;4.78;2.10;;;13.00;99.90;;;;;;4819072;29;20043;-85
2022/10/28 04:30:01;;;;;;;4.75;2.10;;;12.10;99.90;;;;;;4818117;29;20133;-84
2022/10/28 04:32:27;;;;;;;4.18;2.25;;;12.10;99.90;;;;;;4818310;29;20460;-84
2022/10/28 04:34:53;;;;;;;5.07;1.73;;;12.10;99.90;;;;;;4818176;29;20125;-85
2022/10/28 04:37:18;;;;;;;5.05;2.20;;;12.00;99.90;;;;;;4800397;29;20045;-88
2022/10/28 04:39:44;;;;;;;4.50;2.35;;;12.30;99.90;;;;;;4799038;29;20078;-84
2022/10/28 04:42:10;;;;;;;4.18;1.67;;;12.60;99.90;;;;;;4817593;29;20054;-83
2022/10/28 04:44:35;;;;;;;5.40;2.40;;;12.00;99.90;;;;;;4817599;29;20054;-86
2022/10/28 04:47:01;;;;;;;2.97;1.90;;;12.00;99.90;;;;;;4802566;29;20058;-93
2022/10/28 04:49:27;;;;;;;3.85;2.15;;;12.00;99.90;;;;;;4801205;29;20057;-87
2022/10/28 04:51:53;;;;;;;4.90;2.10;;;12.50;99.90;;;;;;4798671;29;20047;-86
2022/10/28 04:54:18;;;;;;;3.30;2.15;;;12.00;99.90;;;;;;4798841;29;20066;-88
2022/10/28 04:56:44;;;;;;;3.28;2.17;;;11.90;99.90;;;;;;4824358;29;20047;-86
2022/10/28 04:59:10;;;;;;;3.75;1.98;;;12.00;99.90;;;;;;4818611;29;20496;-89
2022/10/28 05:01:36;;;;;;;3.75;2.15;;;11.90;99.90;;;;;;4818668;29;20078;-86
2022/10/28 05:04:02;;;;;;;3.17;1.67;;;11.80;99.90;;;;;;4821638;29;20039;-84
2022/10/28 05:06:27;;;;;;;4.80;1.90;;;11.80;99.90;;;;;;4821025;29;20050;-90
2022/10/28 05:08:53;;;;;;;4.25;1.90;;;11.80;99.90;;;;;;4798915;29;20129;-85
2022/10/28 05:11:19;;;;;;;2.75;1.52;;;11.70;99.90;;;;;;4814847;29;20054;-90
2022/10/28 05:13:44;;;;;;;4.82;1.45;;;12.10;99.90;;;;;;4798230;29;20421;-85
2022/10/28 05:16:10;;;;;;;2.63;1.50;;;11.60;99.90;;;;;;4817221;29;20054;-86
2022/10/28 05:18:36;;;;;;;2.95;1.63;;;11.90;99.90;;;;;;4817300;29;20057;-90
2022/10/28 05:21:02;;;;;;;3.90;1.42;;;11.60;99.90;;;;;;4815544;29;20058;-85
2022/10/28 05:23:27;;;;;;;5.15;1.98;;;11.90;99.90;;;;;;4836605;29;20110;-84
2022/10/28 05:25:53;;;;;;;3.47;1.90;;;11.80;99.90;;;;;;4835167;29;20400;-85
2022/10/28 05:28:19;;;;;;;3.88;1.70;;;12.00;99.90;;;;;;4842552;29;20053;-86
2022/10/28 05:30:44;;;;;;;4.78;1.88;;;11.70;99.90;;;;;;4838219;29;20053;-85
2022/10/28 05:33:10;;;;;;;4.82;2.00;;;11.60;99.90;;;;;;4817854;29;20046;-86
2022/10/28 05:35:38;;;;;;;4.85;2.30;;;12.50;99.90;;;;;;4832106;29;20404;-85
2022/10/28 05:38:04;;;;;;;3.20;1.70;;;11.80;99.90;;;;;;4832663;29;20038;-86
2022/10/28 05:40:32;;;;;;;4.53;1.88;;;11.70;99.90;;;;;;4834958;29;20425;-85
2022/10/28 05:43:01;;;;;;;4.70;1.83;;;12.30;99.90;;;;;;4835222;29;20496;-86
2022/10/28 05:45:27;;;;;;;3.63;1.80;;;11.70;99.90;;;;;;4817202;29;20049;-86
2022/10/28 05:47:53;;;;;;;3.50;1.80;;;11.70;99.90;;;;;;4816054;29;20396;-88
2022/10/28 05:50:19;;;;;;;3.53;1.90;;;11.70;99.90;;;;;;4831150;29;20054;-86
2022/10/28 05:52:50;;;;;;;3.53;1.75;;;11.90;99.90;;;;;;4823233;29;20042;-86
2022/10/28 05:55:20;;;;;;;5.38;2.40;;;11.90;99.90;;;;;;4832199;29;20480;-85
2022/10/28 05:57:50;;;;;;;3.03;1.73;;;11.90;99.90;;;;;;4818275;29;20500;-93
2022/10/28 06:00:18;;;;;;;4.80;2.28;;;11.70;99.90;;;;;;4835044;29;20114;-86
2022/10/28 06:02:43;;;;;;;3.03;1.70;;;11.60;99.90;;;;;;4817937;29;20038;-87
2022/10/28 06:05:10;;;;;;;5.85;2.30;;;12.50;99.90;;;;;;4837282;29;20102;-85
2022/10/28 06:07:38;;;;;;;2.85;1.95;;;12.10;99.90;;;;;;4832090;29;20086;-88
2022/10/28 06:10:05;;;;;;;3.75;2.13;;;11.10;99.90;;;;;;4827840;29;20113;-86
2022/10/28 06:12:31;;;;;;;3.97;1.83;;;11.70;99.90;;;;;;4835212;29;20053;-87
2022/10/28 06:14:57;;;;;;;4.22;2.03;;;11.60;99.90;;;;;;4832900;29;20058;-89
2022/10/28 06:17:23;;;;;;;4.20;1.77;;;11.70;99.90;;;;;;4831977;29;20065;-91
2022/10/28 06:19:48;;;;;;;3.22;1.80;;;11.60;99.90;;;;;;4831125;29;20065;-90
2022/10/28 06:22:14;;;;;;;3.35;1.42;;;11.70;99.90;;;;;;4824013;29;20047;-91
2022/10/28 06:24:40;;;;;;;2.70;1.75;;;11.60;99.90;;;;;;4823092;29;20050;-90
2022/10/28 06:27:06;;;;;;;5.82;2.13;;;12.20;99.90;;;;;;4824014;29;20051;-88
2022/10/28 06:29:32;;;;;;;2.55;1.55;;;11.70;99.90;;;;;;4823574;29;20369;-91
2022/10/28 06:31:58;;;;;;;6.68;1.60;;;11.60;99.90;;;;;;4823828;29;20042;-91
2022/10/28 06:34:24;;;;;;;3.78;1.90;;;11.60;99.90;;;;;;4823667;29;20420;-90
2022/10/28 06:36:50;;;;;;;4.00;1.42;;;12.70;99.90;;;;;;4823572;29;20138;-90
2022/10/28 06:39:15;;;;;;;3.50;1.40;;;11.60;99.90;;;;;;4823549;29;20050;-90
2022/10/28 06:41:42;;;;;;;2.38;1.30;;;11.70;99.90;;;;;;4822463;29;20050;-88
2022/10/28 06:44:09;;;;;;;3.55;1.88;;;11.70;99.90;;;;;;4824242;29;20123;-91
2022/10/28 06:46:36;;;;;;;3.17;1.40;;;12.70;99.90;;;;;;4825081;29;20043;-88
2022/10/28 06:49:03;;;;;;;4.32;1.75;;;11.70;99.90;;;;;;4823606;29;20047;-90
2022/10/28 06:51:30;;;;;;;2.22;1.58;;;12.10;99.90;;;;;;4824476;29;20050;-92
2022/10/28 06:53:56;;;;;;;4.25;2.00;;;11.70;99.90;;;;;;4824967;29;20046;-88
2022/10/28 06:56:22;;;;;;;3.50;1.55;;;12.10;99.90;;;;;;4821653;29;20107;-89
2022/10/28 06:58:51;;;;;;;3.13;2.08;;;11.80;99.90;;;;;;4822298;29;20050;-91
2022/10/28 07:01:17;;;;;;;5.50;1.92;;;11.80;99.90;;;;;;4828362;29;20066;-90
2022/10/28 07:03:43;;;;;;;2.70;1.80;;;11.80;99.90;;;;;;4832929;29;20092;-89
2022/10/28 07:06:09;;;;;;;2.58;1.50;;;12.10;99.90;;;;;;4824503;29;20062;-88
2022/10/28 07:08:35;;;;;;;3.97;1.45;;;11.80;99.90;;;;;;4823973;29;20069;-91
2022/10/28 07:11:01;;;;;;;2.95;1.60;;;11.90;99.90;;;;;;4824917;29;20054;-89
2022/10/28 07:13:28;;;;;;;2.85;1.25;;;12.00;99.90;;;;;;4825409;29;20054;-90
2022/10/28 07:15:59;;;;;;;2.45;1.20;;;13.10;99.90;;;;;;4822318;29;20047;-90
2022/10/28 07:18:27;;;;;;;2.50;1.27;;;12.80;99.90;;;;;;4824709;29;20056;-89
2022/10/28 07:20:58;;;;;;;3.35;1.65;;;12.20;99.90;;;;;;4819005;29;20059;-93
2022/10/28 07:23:25;;;;;;;4.70;2.00;;;12.20;99.90;;;;;;4825815;29;20054;-90
2022/10/28 07:25:55;;;;;;;2.40;1.35;;;12.30;99.90;;;;;;4818329;29;20111;-92
2022/10/28 07:28:22;;;;;;;2.38;1.10;;;12.40;99.90;;;;;;4818401;29;20177;-89
2022/10/28 07:30:48;;;;;;;2.42;1.38;;;12.50;99.90;;;;;;4809985;29;20061;-87
2022/10/28 07:33:14;;;;;;;2.47;1.50;;;13.00;99.90;;;;;;4810136;29;20120;-90
2022/10/28 07:35:41;;;;;;;2.63;1.55;;;12.60;99.90;;;;;;4796432;29;20134;-87
2022/10/28 07:38:07;;;;;;;3.22;1.20;;;12.70;99.90;;;;;;4811681;29;20099;-89
2022/10/28 07:40:33;;;;;;;3.17;1.58;;;13.10;99.90;;;;;;4828765;29;20069;-91
2022/10/28 07:42:58;;;;;;;4.35;1.38;;;13.40;99.90;;;;;;4828691;29;20050;-90
2022/10/28 07:45:24;;;;;;;3.60;1.50;;;13.00;99.90;;;;;;4810966;29;20065;-87
2022/10/28 07:47:50;;;;;;;1.67;1.08;;;13.10;99.90;;;;;;4827603;29;20058;-88
2022/10/28 07:50:16;;;;;;;2.85;1.30;;;13.10;99.90;;;;;;4830616;29;20054;-86
2022/10/28 07:52:43;;;;;;;1.33;0.80;;;13.20;99.90;;;;;;4814449;29;20080;-86
2022/10/28 07:55:12;;;;;;;1.60;1.08;;;13.30;99.90;;;;;;4833835;24;20091;-85
2022/10/28 07:57:42;;;;;;;3.10;1.20;;;13.40;99.90;;;;;;4820684;29;20050;-87
2022/10/28 08:00:09;;;;;;;2.40;1.13;;;13.50;99.90;;;;;;4833114;29;20110;-88
2022/10/28 08:02:34;;;;;;;3.38;1.25;;;13.60;99.90;;;;;;4830944;29;20042;-88
2022/10/28 08:05:01;;;;;;;2.85;1.98;;;13.70;99.90;;;;;;4828509;29;20596;-88
2022/10/28 08:11:13;;;;;;;3.70;2.05;;;13.90;99.90;;;;;;4828638;29;20142;-92
2022/10/28 08:13:39;;;;;;;5.72;1.30;;;14.00;99.90;;;;;;4811718;29;20484;-91
2022/10/28 08:16:05;;;;;;;2.10;1.17;;;14.10;99.90;;;;;;4812470;29;20050;-88
2022/10/28 08:18:30;;;;;;;3.42;1.85;;;14.20;99.90;;;;;;4815447;29;20083;-90
2022/10/28 08:21:00;;;;;;;3.13;1.73;;;14.30;99.90;;;;;;4830428;29;20058;-93
2022/10/28 08:23:27;;;;;;;2.13;1.27;;;14.40;99.90;;;;;;4827802;29;20078;-91
2022/10/28 08:25:52;;;;;;;2.08;1.30;;;14.50;99.90;;;;;;4827866;29;20523;-90
2022/10/28 08:28:19;;;;;;;6.25;2.53;;;14.60;99.90;;;;;;4827268;29;20054;-90
2022/10/28 08:30:45;;;;;;;6.40;2.58;;;14.70;99.90;;;;;;4832709;29;20114;-89
2022/10/28 08:33:11;;;;;;;3.20;1.90;;;14.80;99.90;;;;;;4834061;29;20039;-89
2022/10/28 08:35:37;;;;;;;6.18;2.88;;;14.90;99.90;;;;;;4848505;29;20049;-89
2022/10/28 08:38:03;;;;;;;7.18;2.97;;;15.50;99.90;;;;;;4849891;29;20038;-88
2022/10/28 08:40:55;;;;;;;5.47;2.88;;;15.10;99.90;;;;;;4850425;29;20041;-89
2022/10/28 08:43:35;;;;;;;4.60;1.98;;;15.20;99.90;;;;;;4839860;29;20040;-87
2022/10/28 08:46:21;;;;;;;9.75;2.75;;;15.30;99.90;;;;;;4867964;29;20064;-86
2022/10/28 08:48:47;;;;;;;;;;;15.50;99.90;;;;;;4852603;29;20065;-86
2022/10/28 08:52:01;;;;;;;7.95;2.97;;;15.60;99.90;;;;;;4852175;29;19964;-89
2022/10/28 08:54:36;;;;;;;3.55;2.20;;;15.70;99.90;;;;;;4764447;30;20048;-87
2022/10/28 08:57:07;;;;;;;6.27;2.50;;;15.80;99.90;;;;;;4785279;29;20039;-87
2022/10/28 09:00:21;;;;;;;3.60;1.58;;;15.70;99.90;;;;;;4794753;30;20040;-85
2022/10/28 09:03:27;;;;;;;7.45;3.38;;;15.90;99.90;;;;;;4875967;24;20117;-85
2022/10/28 09:09:52;;;;;;;4.32;2.17;;;16.20;99.90;;;;;;4856016;29;20054;-85
2022/10/28 09:12:44;;;;;;;5.07;2.08;;;16.30;99.90;;;;;;4971345;24;20049;-85
2022/10/28 09:15:38;;;;;;;4.97;1.70;;;16.30;99.90;;;;;;4875130;29;20072;-85
2022/10/28 09:18:16;;;;;;;6.55;2.17;;;16.40;99.90;;;;;;4873630;29;20049;-86
2022/10/28 09:20:55;;;;;;;4.68;2.03;;;16.40;99.90;;;;;;4852509;29;20056;-89
2022/10/28 09:23:26;;;;;;;6.13;2.22;;;16.50;99.90;;;;;;4835279;29;20053;-88
2022/10/28 09:26:17;;;;;;;4.47;2.10;;;16.50;99.90;;;;;;4835465;29;20061;-86
2022/10/28 09:28:58;;;;;;;4.15;1.80;;;16.60;99.90;;;;;;4837972;29;20061;-86
2022/10/28 09:31:47;;;;;;;8.15;2.97;;;16.70;99.90;;;;;;4857787;29;20049;-85
2022/10/28 09:34:53;;;;;;;5.40;2.15;;;16.70;99.90;;;;;;4858975;29;20053;-86
2022/10/28 09:37:40;;;;;;;6.05;1.70;;;16.80;99.90;;;;;;4786397;30;20089;-85
2022/10/28 09:40:16;;;;;;;5.68;1.77;;;16.90;99.90;;;;;;4832072;24;20133;-86
2022/10/28 09:43:16;;;;;;;5.80;1.80;;;16.90;99.90;;;;;;4831132;24;20053;-86
2022/10/28 09:46:05;;;;;;;5.70;1.50;;;17.00;99.90;;;;;;4858434;29;20473;-86
2022/10/28 09:49:05;;;;;;;3.05;1.48;;;17.00;99.90;;;;;;4859585;29;20083;-87
2022/10/28 09:55:22;;;;;;;3.83;1.48;;;17.10;99.90;;;;;;4850043;24;20068;-91
2022/10/28 09:57:55;;;;;;;3.53;1.35;;;17.20;99.90;;;;;;4870090;29;20056;-87
2022/10/28 10:00:21;;;;;;;4.85;1.70;;;17.20;99.90;;;;;;4872436;29;20061;-91
2022/10/28 10:02:50;;;;;;;6.60;1.60;;;17.20;99.90;;;;;;4891476;29;20049;-86
2022/10/28 10:05:38;;;;;;;4.30;1.73;;;17.30;99.90;;;;;;4894076;29;20101;-87
2022/10/28 10:08:08;;;;;;;4.50;1.50;;;17.40;99.90;;;;;;4878150;29;20052;-85
2022/10/28 10:11:02;;;;;;;1.85;1.10;;;17.30;99.90;;;;;;4836985;29;20058;-90
2022/10/28 10:13:41;;;;;;;5.68;1.10;;;17.40;99.90;;;;;;4831584;29;20045;-92
2022/10/28 10:16:16;;;;;;;3.05;1.23;;;17.40;99.90;;;;;;4837375;29;20089;-90
2022/10/28 10:18:49;;;;;;;3.40;1.30;;;17.60;99.90;;;;;;4840871;29;20053;-87
2022/10/28 10:21:18;;;;;;;2.40;1.23;;;17.60;99.90;;;;;;4839269;29;20058;-90
2022/10/28 10:23:44;;;;;;;4.47;1.13;;;17.70;99.90;;;;;;4832810;29;20402;-91
2022/10/28 10:26:11;;;;;;;7.43;1.50;;;17.70;99.90;;;;;;4818394;29;20069;-92
2022/10/28 10:28:47;;;;;;;3.80;1.35;;;17.70;99.90;;;;;;4839332;29;20151;-87
2022/10/28 10:31:25;;;;;;;4.25;1.60;;;17.80;99.90;;;;;;4814241;29;20066;-93
2022/10/28 10:33:54;;;;;;;3.00;1.35;;;17.90;99.90;;;;;;4824125;29;20059;-94
2022/10/28 10:40:20;;;;;;;3.33;1.52;;;18.00;99.90;;;;;;4835124;29;20044;-90
2022/10/28 10:42:46;;;;;;;4.57;1.42;;;18.00;99.90;;;;;;4860593;29;20065;-92
2022/10/28 10:45:14;;;;;;;4.95;1.45;;;18.10;99.90;;;;;;4854870;29;20049;-92
2022/10/28 10:47:41;;;;;;;6.15;1.98;;;18.20;99.90;;;;;;4869555;29;20102;-90
2022/10/28 10:50:30;;;;;;;4.05;1.40;;;18.20;99.90;;;;;;4876770;29;20044;-91
2022/10/28 10:53:00;;;;;;;2.85;1.20;;;18.30;99.90;;;;;;4879686;29;20041;-92
2022/10/28 10:55:40;;;;;;;2.03;0.90;;;18.60;99.90;;;;;;4860023;29;20125;-93
2022/10/28 10:58:16;;;;;;;2.90;1.65;;;18.40;99.90;;;;;;4850756;29;20392;-93
2022/10/28 11:00:48;;;;;;;1.42;0.88;;;18.40;99.90;;;;;;4835143;29;20376;-87
2022/10/28 11:03:30;;;;;;;3.63;1.23;;;18.50;99.90;;;;;;4856936;29;20034;-89
2022/10/28 11:05:58;;;;;;;3.28;1.08;;;18.60;99.90;;;;;;4852129;29;20042;-91
2022/10/28 11:08:39;;;;;;;2.03;0.90;;;18.70;99.90;;;;;;4833293;29;20078;-88
2022/10/28 11:11:07;;;;;;;2.15;1.20;;;18.70;99.90;;;;;;4856600;29;20041;-89
2022/10/28 11:13:34;;;;;;;10.63;1.90;;;18.80;99.90;;;;;;4853666;29;20065;-90
2022/10/28 11:16:02;;;;;;;3.60;1.55;;;18.80;99.90;;;;;;4858863;29;20233;-91
2022/10/28 11:18:36;;;;;;;5.43;1.20;;;18.80;99.90;;;;;;4852530;29;20060;-89
2022/10/28 11:21:20;;;;;;;3.20;1.20;;;18.80;99.90;;;;;;4853397;29;20054;-89
2022/10/28 11:24:15;;;;;;;2.58;1.30;;;18.90;99.90;;;;;;4849431;29;20321;-87
2022/10/28 11:26:52;;;;;;;4.70;1.48;;;19.10;99.90;;;;;;4845038;29;20050;-89
2022/10/28 11:29:18;;;;;;;5.97;1.95;;;19.10;99.90;;;;;;4828435;29;20502;-89
2022/10/28 11:31:51;;;;;;;8.43;1.65;;;19.00;99.90;;;;;;4852893;29;20121;-89
2022/10/28 11:34:43;;;;;;;6.70;1.55;;;19.20;99.90;;;;;;4837836;29;20046;-88
2022/10/28 11:37:11;;;;;;;3.35;1.30;;;19.20;99.90;;;;;;4856149;29;20049;-91
2022/10/28 11:39:58;;;;;;;2.80;1.13;;;19.30;99.90;;;;;;4840168;29;20530;-91
2022/10/28 11:42:54;;;;;;;5.78;1.48;;;19.40;99.90;;;;;;4839520;29;20059;-92
2022/10/28 11:45:29;;;;;;;;;;;19.50;99.90;;;;;;4836660;29;20064;-91
2022/10/28 11:48:29;;;;;;;6.20;1.42;;;19.60;99.90;;;;;;4855929;29;20302;-90
2022/10/28 11:51:10;;;;;;;5.20;1.55;;;19.60;99.90;;;;;;4859910;29;20114;-89
2022/10/28 11:53:50;;;;;;;3.00;1.35;;;19.70;99.90;;;;;;4845041;29;20125;-87
2022/10/28 11:56:20;;;;;;;5.63;2.05;;;19.70;99.90;;;;;;4861934;29;20444;-86
2022/10/28 11:59:01;;;;;;;4.90;1.48;;;19.80;99.90;;;;;;4871419;29;20060;-86
2022/10/28 12:01:49;;;;;;;3.83;1.55;;;19.80;99.90;;;;;;4854545;29;20053;-86
2022/10/28 12:04:29;;;;;;;5.90;1.60;;;19.90;99.90;;;;;;4869435;29;20037;-89
2022/10/28 12:07:07;;;;;;;1.52;1.10;;;19.90;99.90;;;;;;4862382;29;20064;-87
2022/10/28 12:10:07;;;;;;;2.75;1.15;;;19.90;99.90;;;;;;4873686;29;20053;-87
2022/10/28 12:12:45;;;;;;;4.90;1.27;;;20.00;99.90;;;;;;4874823;29;20059;-93
2022/10/28 12:15:25;;;;;;;5.28;1.30;;;20.10;99.90;;;;;;4875870;29;20105;-91
2022/10/28 12:18:14;;;;;;;5.13;1.25;;;20.00;99.90;;;;;;4874353;29;20049;-87
2022/10/28 12:20:59;;;;;;;4.45;1.33;;;20.10;99.90;;;;;;4881079;29;20128;-89
2022/10/28 12:23:28;;;;;;;5.43;1.35;;;20.20;99.90;;;;;;4863855;29;20080;-89
2022/10/28 12:25:56;;;;;;;2.78;1.13;;;20.20;99.90;;;;;;4867348;29;20051;-89
2022/10/28 12:28:32;;;;;;;3.72;1.65;;;20.10;99.90;;;;;;4857569;29;20040;-93
2022/10/28 12:30:59;;;;;;;3.33;1.10;;;20.10;99.90;;;;;;4862593;29;20062;-92
2022/10/28 12:33:43;;;;;;;4.72;1.50;;;20.10;99.90;;;;;;4860687;29;20116;-88
2022/10/28 12:36:20;;;;;;;4.88;1.65;;;20.10;99.90;;;;;;4861294;29;20497;-91
2022/10/28 12:39:01;;;;;;;3.83;1.77;;;20.10;99.90;;;;;;4854923;29;20402;-94
2022/10/28 12:41:53;;;;;;;7.60;1.80;;;20.10;99.90;;;;;;4853941;29;20053;-95
2022/10/28 12:44:21;;;;;;;7.03;2.08;;;20.10;99.90;;;;;;4849112;29;20056;-93
2022/10/28 12:47:10;;;;;;;5.72;1.80;;;20.10;99.90;;;;;;4855561;29;20054;-93
2022/10/28 12:50:01;;;;;;;4.70;1.30;;;20.00;99.90;;;;;;4860540;29;20062;-95
2022/10/28 12:52:39;;;;;;;2.83;1.25;;;19.90;99.90;;;;;;4874666;29;20052;-88
2022/10/28 12:55:19;;;;;;;5.95;1.50;;;20.00;99.90;;;;;;4856174;29;20044;-91
2022/10/28 12:58:03;;;;;;;2.95;1.15;;;19.90;99.90;;;;;;4854399;29;20049;-90
2022/10/28 13:00:45;;;;;;;4.18;1.48;;;19.90;99.90;;;;;;4860120;29;20042;-91
2022/10/28 13:03:48;;;;;;;6.45;2.08;;;19.90;99.90;;;;;;4851176;29;20400;-92
2022/10/28 13:15:16;;;;;;;4.57;1.27;;;19.90;99.90;;;;;;4879621;24;20081;-89
2022/10/28 13:18:35;;;;;;;4.57;1.75;;;19.90;99.90;;;;;;4835718;24;20054;31
2022/10/28 13:21:14;;;;;;;5.22;1.33;;;20.10;99.90;;;;;;4789571;29;20051;-89
2022/10/28 13:26:24;;;;;;;7.53;1.75;;;19.90;99.90;;;;;;4892125;23;20069;-90
2022/10/28 13:28:53;;;;;;;10.48;3.05;;;20.50;99.90;;;;;;4824627;29;20535;-88
2022/10/28 13:31:20;;;;;;;3.90;1.95;;;20.00;99.90;;;;;;4818182;29;20383;-93
2022/10/28 13:33:58;;;;;;;5.75;1.58;;;20.00;99.90;;;;;;4807885;29;20046;-90
2022/10/28 13:36:37;;;;;;;3.63;1.58;;;20.10;99.90;;;;;;4801972;29;20061;-94
2022/10/28 13:39:06;;;;;;;5.55;1.98;;;20.10;99.90;;;;;;4809188;29;20062;-90
2022/10/28 13:41:38;;;;;;;7.43;1.65;;;21.00;99.90;;;;;;4817657;24;20054;-93